Time;durP1;ratioP1;P1;durP2;ratioP2;P2;SDS_P1;SDS_P2;PMS_P1;PMS_P2;Temp;Humidity;BMP_temperature;BMP_pressure;BME280_temperature;BME280_humidity;BME280_pressure;Samples;Min_cycle;Max_cycle;Signal;HPM_P1;HPM_P2
2020/12/09 00:01:45;;;;;;;19.20;13.63;;;19.70;51.40;;;;;;5046740;28;20478;-68
2020/12/09 00:04:11;;;;;;;18.07;13.93;;;19.70;51.30;;;;;;5036704;28;21025;-68
2020/12/09 00:06:38;;;;;;;22.00;14.80;;;19.70;51.30;;;;;;5047378;28;21292;-69
2020/12/09 00:09:05;;;;;;;22.07;13.87;;;19.70;51.20;;;;;;5047972;28;20498;-69
2020/12/09 00:11:31;;;;;;;23.17;15.40;;;19.70;51.10;;;;;;5047626;28;20474;-71
2020/12/09 00:13:58;;;;;;;22.37;15.00;;;19.70;51.10;;;;;;5039665;28;20486;-70
2020/12/09 00:16:24;;;;;;;20.37;14.23;;;19.70;51.20;;;;;;5060165;28;20477;-71
2020/12/09 00:18:50;;;;;;;22.53;13.93;;;19.70;51.20;;;;;;5063328;28;20512;-71
2020/12/09 00:21:17;;;;;;;23.57;14.17;;;19.60;51.00;;;;;;5052123;28;20525;-71
2020/12/09 00:23:43;;;;;;;21.13;13.90;;;19.70;51.00;;;;;;5049936;28;20482;-70
2020/12/09 00:26:10;;;;;;;22.87;14.47;;;19.70;51.20;;;;;;5040862;28;20530;-69
2020/12/09 00:28:37;;;;;;;22.60;13.47;;;19.70;51.40;;;;;;5042451;28;20585;-72
2020/12/09 00:31:03;;;;;;;20.33;14.67;;;19.70;51.20;;;;;;5042612;28;20487;-68
2020/12/09 00:33:29;;;;;;;22.60;14.27;;;19.70;50.80;;;;;;5046429;28;20939;-69
2020/12/09 00:35:57;;;;;;;23.03;14.80;;;19.70;50.80;;;;;;5049410;28;20482;-69
2020/12/09 00:38:23;;;;;;;21.57;15.57;;;19.70;50.60;;;;;;5037199;28;21422;-72
2020/12/09 00:40:49;;;;;;;22.03;14.90;;;19.80;50.70;;;;;;5045091;28;20482;-70
2020/12/09 00:43:16;;;;;;;24.07;16.87;;;19.80;50.80;;;;;;5052290;28;20497;-71
2020/12/09 00:45:42;;;;;;;23.70;14.80;;;19.70;50.50;;;;;;5042666;28;20990;-69
2020/12/09 00:48:08;;;;;;;22.77;15.03;;;19.70;50.80;;;;;;5045102;28;20906;-68
2020/12/09 00:50:34;;;;;;;22.60;14.30;;;19.70;50.80;;;;;;5040886;28;20469;-68
2020/12/09 00:53:01;;;;;;;22.03;15.37;;;19.70;50.60;;;;;;5050572;28;20481;-68
2020/12/09 00:55:27;;;;;;;19.90;14.27;;;19.70;50.40;;;;;;5047291;28;20482;-69
2020/12/09 00:57:53;;;;;;;23.43;15.60;;;19.80;50.30;;;;;;5040341;28;20477;-68
2020/12/09 01:00:20;;;;;;;24.07;14.50;;;19.80;50.20;;;;;;5045775;28;20519;-68
2020/12/09 01:02:46;;;;;;;23.80;15.77;;;19.80;50.20;;;;;;5048576;28;20482;-69
2020/12/09 01:05:12;;;;;;;20.47;14.60;;;19.80;50.20;;;;;;5051249;28;20535;-69
2020/12/09 01:07:38;;;;;;;19.43;13.57;;;19.80;50.20;;;;;;5049151;28;21954;-68
2020/12/09 01:10:05;;;;;;;21.37;14.83;;;19.80;50.30;;;;;;5047890;28;20492;-66
2020/12/09 01:12:31;;;;;;;22.37;14.57;;;19.80;50.30;;;;;;5051812;28;20481;-69
2020/12/09 01:14:58;;;;;;;21.50;13.97;;;19.70;50.20;;;;;;5047335;28;20564;-69
2020/12/09 01:17:25;;;;;;;20.77;14.50;;;19.70;50.20;;;;;;5046330;28;20504;-71
2020/12/09 01:19:51;;;;;;;23.20;13.90;;;19.70;50.20;;;;;;5049023;28;20481;-68
2020/12/09 01:22:17;;;;;;;21.87;15.10;;;19.70;50.20;;;;;;5051181;28;20531;-68
2020/12/09 01:24:43;;;;;;;24.83;15.90;;;19.70;50.20;;;;;;5048340;28;20490;-68
2020/12/09 01:27:09;;;;;;;21.23;15.50;;;19.70;50.20;;;;;;5043529;28;20498;-69
2020/12/09 01:29:35;;;;;;;19.90;13.73;;;19.70;50.20;;;;;;5051995;28;20485;-70
2020/12/09 01:32:01;;;;;;;21.93;14.90;;;19.60;50.20;;;;;;5042502;28;20474;-68
2020/12/09 01:34:29;;;;;;;24.73;15.03;;;19.70;50.30;;;;;;5035462;28;20486;-69
2020/12/09 01:36:55;;;;;;;21.90;14.83;;;19.70;50.30;;;;;;5043614;28;20480;-70
2020/12/09 01:39:21;;;;;;;23.63;15.17;;;19.70;50.20;;;;;;5044005;28;20884;-69
2020/12/09 01:41:48;;;;;;;26.00;15.70;;;19.70;50.00;;;;;;5044188;28;22050;-68
2020/12/09 01:44:14;;;;;;;23.57;14.83;;;19.70;50.00;;;;;;5050448;28;20498;-71
2020/12/09 01:46:40;;;;;;;29.23;15.60;;;19.70;50.00;;;;;;5049521;28;20474;-68
2020/12/09 01:49:06;;;;;;;18.70;14.87;;;19.70;50.00;;;;;;5051712;28;20507;-68
2020/12/09 01:51:33;;;;;;;20.80;14.43;;;19.70;50.00;;;;;;5051785;28;20493;-69
2020/12/09 01:54:00;;;;;;;22.27;14.67;;;19.70;50.70;;;;;;5039764;28;20485;-68
2020/12/09 01:56:26;;;;;;;24.17;15.33;;;19.70;49.80;;;;;;5036499;28;20493;-69
2020/12/09 01:58:53;;;;;;;19.73;14.30;;;19.70;49.90;;;;;;5039949;28;20930;-69
2020/12/09 02:01:20;;;;;;;23.53;15.57;;;19.70;49.90;;;;;;5048418;28;20498;-69
2020/12/09 02:03:46;;;;;;;29.70;15.93;;;19.60;49.80;;;;;;5048897;28;20490;-70
2020/12/09 02:06:12;;;;;;;21.80;14.27;;;19.60;49.80;;;;;;5039062;28;20872;-69
2020/12/09 02:08:39;;;;;;;23.70;14.93;;;19.70;50.00;;;;;;5048764;28;20488;-68
2020/12/09 02:11:05;;;;;;;21.60;15.60;;;19.60;49.80;;;;;;5050697;28;20521;-69
2020/12/09 02:13:32;;;;;;;24.03;13.80;;;19.60;49.70;;;;;;5049492;28;20496;-67
2020/12/09 02:15:58;;;;;;;21.37;14.50;;;19.60;49.70;;;;;;5041553;28;20482;-70
2020/12/09 02:18:24;;;;;;;20.47;13.60;;;19.60;49.70;;;;;;5039209;28;20551;-69
2020/12/09 02:20:50;;;;;;;19.93;13.83;;;19.60;49.80;;;;;;5051798;28;20490;-70
2020/12/09 02:23:17;;;;;;;19.57;13.20;;;19.60;49.70;;;;;;5047686;28;20490;-69
2020/12/09 02:25:45;;;;;;;18.60;13.17;;;19.60;49.70;;;;;;5049271;28;20997;-68
2020/12/09 02:28:11;;;;;;;20.20;13.50;;;19.60;49.70;;;;;;5048384;28;20928;-69
2020/12/09 02:30:37;;;;;;;24.80;15.00;;;19.60;49.80;;;;;;5048888;28;20674;-69
2020/12/09 02:33:03;;;;;;;21.93;14.90;;;19.60;49.80;;;;;;5050264;28;20500;-68
2020/12/09 02:35:30;;;;;;;22.67;14.93;;;19.60;49.70;;;;;;5050135;28;20489;-70
2020/12/09 02:37:56;;;;;;;24.73;15.10;;;19.60;49.70;;;;;;5050142;28;20477;-68
2020/12/09 02:40:23;;;;;;;21.30;14.70;;;19.60;49.70;;;;;;5050864;28;20490;-70
2020/12/09 02:42:49;;;;;;;21.70;13.80;;;19.60;49.70;;;;;;5040404;28;20486;-70
2020/12/09 02:45:15;;;;;;;21.40;13.30;;;19.60;49.70;;;;;;5047503;28;20482;-70
2020/12/09 02:47:42;;;;;;;23.47;14.40;;;19.60;49.80;;;;;;5050015;28;20493;-68
2020/12/09 02:50:08;;;;;;;19.63;13.00;;;19.60;49.80;;;;;;5049282;28;20481;-69
2020/12/09 02:52:34;;;;;;;21.37;13.07;;;19.60;49.70;;;;;;5046907;28;20474;-68
2020/12/09 02:55:00;;;;;;;23.10;13.63;;;19.60;49.60;;;;;;5046526;28;20478;-69
2020/12/09 02:57:27;;;;;;;25.33;14.67;;;19.60;49.50;;;;;;5041417;28;20478;-71
2020/12/09 02:59:53;;;;;;;20.43;13.37;;;19.60;49.40;;;;;;5047666;28;20910;-69
2020/12/09 03:02:19;;;;;;;19.77;13.57;;;19.70;49.50;;;;;;5050033;28;20489;-69
2020/12/09 03:04:45;;;;;;;23.73;12.83;;;19.70;49.40;;;;;;5053138;28;20489;-70
2020/12/09 03:07:12;;;;;;;22.60;14.33;;;19.70;49.30;;;;;;5038414;28;20530;-68
2020/12/09 03:09:38;;;;;;;20.37;12.87;;;19.70;49.20;;;;;;5046335;28;20497;-69
2020/12/09 03:12:04;;;;;;;20.70;13.17;;;19.70;49.20;;;;;;5037262;28;20489;-69
2020/12/09 03:14:31;;;;;;;19.40;13.13;;;19.70;49.10;;;;;;5038697;28;20474;-70
2020/12/09 03:16:57;;;;;;;19.13;13.50;;;19.70;49.30;;;;;;5052179;28;20469;-69
2020/12/09 03:19:23;;;;;;;22.30;13.80;;;19.70;49.30;;;;;;5071152;28;20477;-70
2020/12/09 03:21:49;;;;;;;19.60;11.87;;;19.70;49.20;;;;;;5069663;28;20961;-68
2020/12/09 03:24:15;;;;;;;21.83;14.27;;;19.70;49.20;;;;;;5072543;28;20989;-69
2020/12/09 03:26:42;;;;;;;21.10;13.70;;;19.60;49.20;;;;;;5064647;28;20503;-68
2020/12/09 03:29:08;;;;;;;23.00;13.53;;;19.60;49.20;;;;;;5064464;28;20503;-70
2020/12/09 03:31:35;;;;;;;21.20;13.53;;;19.60;49.20;;;;;;5069627;28;21109;-69
2020/12/09 03:34:01;;;;;;;20.90;13.40;;;19.60;49.20;;;;;;5065214;28;20480;-69
2020/12/09 03:36:27;;;;;;;21.13;13.00;;;19.60;49.20;;;;;;5083020;28;20469;-69
2020/12/09 03:38:53;;;;;;;22.40;14.47;;;19.60;49.20;;;;;;5068731;28;21190;-70
2020/12/09 03:41:19;;;;;;;20.27;13.40;;;19.60;49.20;;;;;;5068267;28;20731;-68
2020/12/09 03:43:45;;;;;;;21.17;13.87;;;19.60;49.20;;;;;;5069737;28;20567;-69
2020/12/09 03:46:12;;;;;;;19.63;13.40;;;19.60;49.20;;;;;;5061101;28;20491;-67
2020/12/09 03:48:38;;;;;;;21.63;12.77;;;19.60;49.10;;;;;;5073673;28;20484;-68
2020/12/09 03:51:05;;;;;;;22.80;12.57;;;19.60;49.10;;;;;;5062447;28;20487;-69
2020/12/09 03:53:32;;;;;;;21.63;12.90;;;19.60;49.10;;;;;;5081478;28;20542;-69
2020/12/09 03:55:59;;;;;;;21.73;13.40;;;19.60;49.00;;;;;;5070057;28;20491;-69
2020/12/09 03:58:25;;;;;;;20.57;13.23;;;19.60;49.00;;;;;;5071097;28;20485;-71
2020/12/09 04:00:51;;;;;;;21.50;13.70;;;19.60;49.10;;;;;;5070918;28;20481;-70
2020/12/09 04:03:17;;;;;;;22.77;13.13;;;19.60;49.00;;;;;;5080339;28;20491;-70
2020/12/09 04:05:44;;;;;;;25.77;14.30;;;19.60;49.00;;;;;;5078809;28;20488;-68
2020/12/09 04:08:10;;;;;;;19.47;12.90;;;19.60;49.00;;;;;;5094393;28;20482;-69
2020/12/09 04:10:36;;;;;;;24.53;12.87;;;19.60;48.90;;;;;;5068609;28;20473;-69
2020/12/09 04:13:02;;;;;;;18.67;12.77;;;19.70;49.00;;;;;;5069243;28;20474;-67
2020/12/09 04:15:28;;;;;;;24.17;14.27;;;19.70;48.90;;;;;;5073644;28;20480;-68
2020/12/09 04:17:55;;;;;;;22.80;13.10;;;19.70;48.80;;;;;;5071252;28;20468;-69
2020/12/09 04:20:21;;;;;;;27.90;14.60;;;19.70;48.60;;;;;;5070414;28;20468;-68
2020/12/09 04:22:48;;;;;;;24.93;14.10;;;19.70;48.60;;;;;;5070230;28;20504;-68
2020/12/09 04:25:14;;;;;;;22.27;13.50;;;19.70;48.60;;;;;;5067562;28;20856;-68
2020/12/09 04:27:40;;;;;;;21.27;12.97;;;19.70;48.50;;;;;;5073492;28;20512;-68
2020/12/09 04:30:06;;;;;;;24.03;13.50;;;19.70;48.50;;;;;;5068058;28;20482;-69
2020/12/09 04:32:32;;;;;;;29.30;13.57;;;19.80;48.50;;;;;;5068740;28;20485;-68
2020/12/09 04:34:58;;;;;;;28.27;14.27;;;19.70;48.40;;;;;;5069352;28;20489;-67
2020/12/09 04:37:27;;;;;;;26.97;13.47;;;19.80;48.40;;;;;;5064660;28;20574;-69
2020/12/09 04:39:54;;;;;;;20.03;12.60;;;19.70;48.40;;;;;;5069573;28;20474;-67
2020/12/09 04:42:20;;;;;;;22.53;14.00;;;19.70;48.40;;;;;;5068194;28;20871;-70
2020/12/09 04:44:46;;;;;;;23.13;12.43;;;19.70;48.40;;;;;;5073132;28;21027;-69
2020/12/09 04:47:17;;;;;;;24.07;12.70;;;19.70;48.30;;;;;;5066412;28;20495;-69
2020/12/09 04:49:46;;;;;;;21.30;12.37;;;19.80;48.50;;;;;;5068148;28;20477;-70
2020/12/09 04:52:32;;;;;;;24.53;13.67;;;19.70;48.30;;;;;;5068613;28;20484;-68
2020/12/09 04:55:04;;;;;;;21.20;13.57;;;19.70;48.40;;;;;;5059011;28;21005;-70
2020/12/09 04:57:41;;;;;;;18.90;12.10;;;19.70;48.30;;;;;;5036285;28;21138;-69
2020/12/09 05:00:08;;;;;;;19.70;11.83;;;19.70;48.30;;;;;;5054163;28;20484;-71
2020/12/09 05:02:42;;;;;;;22.43;13.83;;;19.70;48.30;;;;;;5078053;28;20481;-69
2020/12/09 05:05:08;;;;;;;17.20;11.97;;;19.70;48.40;;;;;;5073184;28;21191;-69
2020/12/09 05:07:36;;;;;;;22.73;13.77;;;19.70;48.50;;;;;;5069320;28;20475;-69
2020/12/09 05:10:04;;;;;;;23.63;12.63;;;19.70;48.50;;;;;;5070008;28;20485;-69
2020/12/09 05:12:31;;;;;;;20.67;12.73;;;19.70;48.40;;;;;;5064672;28;20473;-69
2020/12/09 05:14:58;;;;;;;19.30;12.07;;;19.80;48.40;;;;;;5069476;28;20493;-68
2020/12/09 05:17:24;;;;;;;19.07;11.40;;;19.80;48.30;;;;;;5072208;28;20491;-67
2020/12/09 05:19:50;;;;;;;23.87;13.90;;;19.80;48.20;;;;;;5079904;28;21094;-69
2020/12/09 05:22:17;;;;;;;17.17;12.27;;;19.80;48.30;;;;;;5076516;28;20498;-68
2020/12/09 05:24:44;;;;;;;20.17;13.63;;;19.80;48.20;;;;;;5072576;28;20499;-67
2020/12/09 05:27:11;;;;;;;20.83;13.10;;;19.80;48.10;;;;;;5073306;28;20484;-69
2020/12/09 05:29:44;;;;;;;18.57;12.50;;;19.80;48.10;;;;;;5072435;28;20482;-69
2020/12/09 05:32:10;;;;;;;20.73;12.27;;;19.80;48.10;;;;;;5071763;28;20508;-68
2020/12/09 05:34:36;;;;;;;25.67;14.23;;;19.70;48.00;;;;;;5073278;28;20488;-70
2020/12/09 05:37:03;;;;;;;23.90;13.50;;;19.70;48.00;;;;;;5054153;28;20501;-68
2020/12/09 05:39:30;;;;;;;27.33;14.60;;;19.80;47.90;;;;;;5054081;28;20482;-70
2020/12/09 05:41:56;;;;;;;24.13;13.57;;;19.80;47.80;;;;;;5053642;28;20481;-70
2020/12/09 05:44:24;;;;;;;23.73;15.00;;;19.80;47.70;;;;;;5052038;28;20494;-68
2020/12/09 05:46:58;;;;;;;24.63;13.07;;;19.80;47.60;;;;;;5039669;28;20485;-68
2020/12/09 05:49:25;;;;;;;24.63;14.67;;;19.80;47.60;;;;;;5053117;28;20987;-67
2020/12/09 05:52:08;;;;;;;24.60;13.73;;;19.80;47.60;;;;;;5054779;28;20488;-70
2020/12/09 05:54:34;;;;;;;21.13;12.63;;;19.70;47.60;;;;;;5040656;28;20475;-68
2020/12/09 05:57:03;;;;;;;26.20;14.10;;;19.70;47.60;;;;;;5049097;28;20482;-67
2020/12/09 05:59:37;;;;;;;23.80;13.30;;;19.70;47.70;;;;;;5048587;28;20485;-71
2020/12/09 06:02:11;;;;;;;20.90;12.70;;;19.70;47.60;;;;;;5058077;28;20880;-69
2020/12/09 06:04:51;;;;;;;24.10;14.10;;;19.70;47.60;;;;;;5063981;28;20477;-69
2020/12/09 06:07:17;;;;;;;22.17;13.40;;;19.70;47.60;;;;;;5085510;28;20526;-68
2020/12/09 06:10:13;;;;;;;24.50;14.03;;;19.70;47.50;;;;;;5072671;28;20498;-68
2020/12/09 06:13:03;;;;;;;24.50;13.73;;;19.70;47.30;;;;;;5073046;28;20499;-70
2020/12/09 06:15:31;;;;;;;21.73;13.20;;;19.80;47.40;;;;;;5032339;28;21485;-69
2020/12/09 06:18:04;;;;;;;22.23;12.70;;;19.80;47.60;;;;;;5050039;28;20477;-69
2020/12/09 06:20:33;;;;;;;27.07;13.20;;;19.70;47.20;;;;;;5042235;28;20840;-70
2020/12/09 06:23:00;;;;;;;25.47;12.93;;;19.70;47.10;;;;;;5031786;28;20572;-68
2020/12/09 06:25:26;;;;;;;25.57;15.30;;;19.70;46.80;;;;;;5054708;28;20489;-68
2020/12/09 06:27:52;;;;;;;23.60;14.53;;;19.80;46.60;;;;;;5049618;28;20846;-69
2020/12/09 06:30:29;;;;;;;22.90;14.50;;;19.70;46.60;;;;;;5051125;28;20490;-68
2020/12/09 06:32:55;;;;;;;27.30;14.47;;;19.70;46.50;;;;;;5051912;28;20524;-69
2020/12/09 06:35:22;;;;;;;27.10;14.30;;;19.70;46.40;;;;;;5051203;28;21082;-68
2020/12/09 06:38:18;;;;;;;25.63;14.57;;;19.70;46.40;;;;;;5050130;28;20482;-67
2020/12/09 06:41:09;;;;;;;25.70;13.40;;;19.60;46.30;;;;;;5051476;28;21211;-68
2020/12/09 06:43:36;;;;;;;26.23;14.40;;;19.70;46.40;;;;;;5060516;28;20498;-68
2020/12/09 06:46:03;;;;;;;22.37;14.00;;;19.70;46.40;;;;;;5068671;28;21057;-68
2020/12/09 06:48:33;;;;;;;26.30;14.10;;;19.80;46.40;;;;;;5067826;28;20472;-69
2020/12/09 06:50:59;;;;;;;25.30;15.10;;;19.80;46.50;;;;;;5051648;28;20475;-69
2020/12/09 06:53:25;;;;;;;22.97;13.50;;;19.80;46.40;;;;;;5048957;28;20477;-68
2020/12/09 06:55:51;;;;;;;22.93;13.60;;;19.80;46.40;;;;;;5046980;28;21045;-69
2020/12/09 06:58:21;;;;;;;26.70;13.60;;;19.70;46.60;;;;;;5052452;28;20863;-69
2020/12/09 07:00:57;;;;;;;22.87;13.70;;;19.70;46.80;;;;;;5050275;28;20501;-68
2020/12/09 07:03:25;;;;;;;21.60;14.50;;;19.60;46.90;;;;;;5046290;28;20500;-71
2020/12/09 07:05:52;;;;;;;22.83;12.97;;;19.60;46.90;;;;;;5048260;28;20579;-70
2020/12/09 07:08:18;;;;;;;22.43;14.10;;;19.60;46.90;;;;;;5043268;28;20486;-69
2020/12/09 07:10:44;;;;;;;21.90;12.77;;;19.70;46.80;;;;;;5046651;28;20512;-72
2020/12/09 07:13:12;;;;;;;19.83;12.60;;;19.70;46.80;;;;;;5022677;28;20486;-70
2020/12/09 07:15:39;;;;;;;22.70;14.00;;;19.70;46.70;;;;;;5042897;28;21812;-69
2020/12/09 07:18:06;;;;;;;21.63;13.70;;;19.70;46.80;;;;;;5039780;28;20867;-70
2020/12/09 07:20:33;;;;;;;28.33;13.80;;;19.70;46.70;;;;;;5048570;28;20478;-70
2020/12/09 07:22:59;;;;;;;22.70;14.30;;;19.70;47.10;;;;;;5045580;28;20501;-71
2020/12/09 07:25:25;;;;;;;23.53;13.70;;;19.70;46.90;;;;;;5042223;28;20481;-70
2020/12/09 07:27:52;;;;;;;22.93;13.30;;;19.70;47.10;;;;;;5042499;28;20483;-71
2020/12/09 07:30:18;;;;;;;23.00;13.50;;;19.60;47.20;;;;;;5045683;28;20485;-70
2020/12/09 07:32:46;;;;;;;21.13;13.53;;;19.70;47.50;;;;;;5046133;28;20484;-69
2020/12/09 07:35:13;;;;;;;23.97;12.07;;;19.60;47.60;;;;;;5046382;28;20494;-70
2020/12/09 07:37:41;;;;;;;20.27;12.90;;;19.60;47.60;;;;;;5045092;28;20490;-70
2020/12/09 07:40:11;;;;;;;23.90;13.63;;;19.60;47.80;;;;;;5041859;28;21160;-70
2020/12/09 07:42:37;;;;;;;24.80;13.60;;;19.60;47.90;;;;;;5045903;28;20479;-70
2020/12/09 07:45:08;;;;;;;21.57;12.63;;;19.60;47.90;;;;;;5055177;28;20481;-69
2020/12/09 07:47:34;;;;;;;25.33;13.40;;;19.50;47.90;;;;;;5045835;28;20482;-70
2020/12/09 07:50:03;;;;;;;17.13;12.40;;;19.50;47.90;;;;;;5056763;28;21026;-71
2020/12/09 07:52:30;;;;;;;22.70;13.07;;;19.60;48.10;;;;;;5068722;28;21019;-69
2020/12/09 07:54:58;;;;;;;20.47;11.57;;;19.50;48.00;;;;;;5070152;28;20473;-69
2020/12/09 07:57:25;;;;;;;21.57;12.20;;;19.60;48.10;;;;;;5066862;28;20490;-71
2020/12/09 07:59:55;;;;;;;21.57;12.67;;;19.60;48.10;;;;;;5071437;28;20486;-70
2020/12/09 08:02:21;;;;;;;18.87;12.10;;;19.60;48.10;;;;;;5066742;28;21698;-70
2020/12/09 08:04:48;;;;;;;19.40;11.20;;;19.60;48.10;;;;;;5064213;28;20493;-69
2020/12/09 08:07:18;;;;;;;24.83;13.03;;;19.70;48.00;;;;;;5053225;28;20480;-71
2020/12/09 08:10:07;;;;;;;17.10;11.20;;;19.60;48.10;;;;;;5048252;28;20497;-69
2020/12/09 08:12:35;;;;;;;21.80;12.27;;;19.60;48.00;;;;;;5039230;28;20543;-69
2020/12/09 08:15:01;;;;;;;16.30;11.13;;;19.70;48.20;;;;;;5037705;28;20494;-71
2020/12/09 08:17:28;;;;;;;19.17;11.73;;;19.60;48.20;;;;;;5044100;28;20500;-69
2020/12/09 08:19:58;;;;;;;17.73;11.50;;;19.60;48.30;;;;;;5044652;28;20485;-69
2020/12/09 08:22:24;;;;;;;16.73;11.87;;;19.50;48.30;;;;;;5049876;28;20489;-69
2020/12/09 08:25:08;;;;;;;19.63;11.73;;;19.50;48.50;;;;;;5049172;28;20481;-70
2020/12/09 08:27:41;;;;;;;25.20;10.27;;;19.50;48.60;;;;;;5057010;28;20479;-70
2020/12/09 08:30:09;;;;;;;20.33;12.40;;;19.50;48.70;;;;;;5072661;28;20515;-70
2020/12/09 08:32:57;;;;;;;17.07;11.27;;;19.50;48.60;;;;;;5066597;28;20473;-70
2020/12/09 08:35:23;;;;;;;17.63;11.13;;;19.50;48.50;;;;;;5070937;28;21245;-69
2020/12/09 08:37:49;;;;;;;19.83;12.10;;;19.60;48.50;;;;;;5066789;28;21506;-70
2020/12/09 08:40:16;;;;;;;21.30;12.23;;;19.70;48.40;;;;;;5068931;28;20483;-70
2020/12/09 08:42:53;;;;;;;21.00;13.60;;;19.70;48.30;;;;;;5074773;27;20489;-70
2020/12/09 08:45:19;;;;;;;22.03;11.33;;;19.80;48.10;;;;;;5068545;28;20496;-70
2020/12/09 08:47:45;;;;;;;18.77;11.50;;;19.90;48.00;;;;;;5072199;27;20483;-70
2020/12/09 08:50:11;;;;;;;17.47;12.03;;;19.90;47.80;;;;;;5068882;28;20496;-70
2020/12/09 08:52:38;;;;;;;16.47;11.23;;;20.00;48.00;;;;;;5065040;28;20514;-67
2020/12/09 08:55:04;;;;;;;18.07;10.97;;;20.00;47.90;;;;;;5078407;28;21403;-70
2020/12/09 08:57:31;;;;;;;19.27;11.60;;;20.00;47.90;;;;;;5068678;28;21067;-70
2020/12/09 08:59:57;;;;;;;18.13;11.70;;;20.00;47.90;;;;;;5065420;28;20474;-72
2020/12/09 09:02:23;;;;;;;17.63;10.93;;;20.00;47.90;;;;;;5073136;28;20477;-69
2020/12/09 09:04:49;;;;;;;17.23;11.50;;;20.00;48.00;;;;;;5068023;28;20484;-70
2020/12/09 09:07:15;;;;;;;13.53;10.37;;;20.00;48.00;;;;;;5068306;28;20497;-69
2020/12/09 09:09:42;;;;;;;15.30;9.90;;;20.00;48.00;;;;;;5070398;28;20485;-72
2020/12/09 09:12:08;;;;;;;20.47;11.47;;;20.00;48.00;;;;;;5070324;28;20580;-69
2020/12/09 09:14:35;;;;;;;19.63;11.23;;;20.00;47.90;;;;;;5068537;28;20492;-69
2020/12/09 09:17:02;;;;;;;16.03;11.20;;;20.00;48.00;;;;;;5072060;28;20487;-69
2020/12/09 09:19:28;;;;;;;18.10;10.40;;;20.10;48.00;;;;;;5061708;28;20484;-70
2020/12/09 09:21:54;;;;;;;16.90;13.10;;;20.10;47.90;;;;;;5078780;28;20476;-72
2020/12/09 09:24:20;;;;;;;18.10;11.13;;;20.10;47.80;;;;;;5068383;28;20493;-70
2020/12/09 09:26:46;;;;;;;15.93;10.00;;;20.20;47.80;;;;;;5071254;28;21496;-70
2020/12/09 09:29:12;;;;;;;13.27;10.03;;;20.10;47.70;;;;;;5070117;28;20485;-70
2020/12/09 09:31:39;;;;;;;19.63;11.20;;;20.10;47.80;;;;;;5064407;28;21101;-71
2020/12/09 09:34:06;;;;;;;14.73;10.13;;;20.10;47.90;;;;;;5068419;28;20477;-70
2020/12/09 09:36:32;;;;;;;18.33;11.50;;;20.10;47.90;;;;;;5068587;28;20947;-69
2020/12/09 09:38:58;;;;;;;16.63;11.53;;;20.10;48.00;;;;;;5073843;28;20868;-70
2020/12/09 09:41:24;;;;;;;14.47;10.17;;;20.10;48.10;;;;;;5070279;28;20520;-72
2020/12/09 09:43:50;;;;;;;16.60;11.97;;;20.10;48.10;;;;;;5071024;28;20487;-71
2020/12/09 09:46:20;;;;;;;15.30;10.00;;;20.10;48.00;;;;;;5067787;28;20496;-71
2020/12/09 09:48:47;;;;;;;15.40;10.10;;;20.10;48.00;;;;;;5072387;28;20480;-71
2020/12/09 09:51:14;;;;;;;16.73;10.20;;;20.10;48.00;;;;;;5070088;28;20497;-69
2020/12/09 09:53:40;;;;;;;16.77;10.77;;;20.10;48.00;;;;;;5069674;28;20488;-70
2020/12/09 09:56:06;;;;;;;16.73;10.80;;;20.10;48.10;;;;;;5074338;28;20475;-70
2020/12/09 09:58:32;;;;;;;18.37;10.87;;;20.10;48.10;;;;;;5071104;28;20485;-69
2020/12/09 10:00:58;;;;;;;16.90;10.33;;;20.10;48.00;;;;;;5070246;28;20476;-70
2020/12/09 10:03:25;;;;;;;20.43;11.90;;;20.10;48.10;;;;;;5078100;27;21038;-71
2020/12/09 10:05:52;;;;;;;16.40;10.70;;;20.10;48.20;;;;;;5073439;28;20564;-70
2020/12/09 10:08:18;;;;;;;16.80;9.50;;;20.10;48.20;;;;;;5072324;28;20480;-70
2020/12/09 10:10:44;;;;;;;14.07;9.93;;;20.00;48.10;;;;;;5072453;28;20472;-70
2020/12/09 10:13:10;;;;;;;16.33;10.90;;;20.00;48.30;;;;;;5073278;28;20485;-69
2020/12/09 10:15:37;;;;;;;17.63;10.83;;;20.00;48.30;;;;;;5074305;28;20491;-72
2020/12/09 10:18:03;;;;;;;17.30;10.83;;;20.00;48.40;;;;;;5073033;28;20488;-70
2020/12/09 10:20:29;;;;;;;21.00;12.37;;;19.90;48.30;;;;;;5072751;28;20487;-71
2020/12/09 10:22:56;;;;;;;14.23;9.60;;;20.00;48.30;;;;;;5075416;28;20483;-70
2020/12/09 10:25:23;;;;;;;17.37;9.20;;;20.00;48.30;;;;;;5073307;28;20496;-69
2020/12/09 10:27:50;;;;;;;15.30;9.33;;;20.00;48.40;;;;;;5059728;28;20500;-70
2020/12/09 10:30:16;;;;;;;15.07;10.20;;;20.00;48.50;;;;;;5082960;28;20528;-70
2020/12/09 10:32:42;;;;;;;17.47;10.70;;;20.00;48.50;;;;;;5070939;28;20492;-70
2020/12/09 10:35:08;;;;;;;14.10;9.93;;;20.00;48.40;;;;;;5070490;28;20496;-67
2020/12/09 10:37:34;;;;;;;12.77;9.57;;;20.00;48.30;;;;;;5073469;28;21118;-67
2020/12/09 10:40:01;;;;;;;14.17;10.90;;;20.00;48.40;;;;;;5073820;28;20490;-68
2020/12/09 10:42:27;;;;;;;14.83;10.20;;;20.00;48.30;;;;;;5064287;28;20488;-68
2020/12/09 10:44:53;;;;;;;12.70;8.93;;;20.00;48.40;;;;;;5071610;28;20473;-68
2020/12/09 10:47:20;;;;;;;16.97;10.40;;;20.00;48.40;;;;;;5071214;28;21020;-67
2020/12/09 10:49:46;;;;;;;16.60;10.70;;;20.00;48.40;;;;;;5075425;28;20614;-66
2020/12/09 10:52:12;;;;;;;13.70;9.17;;;19.90;48.40;;;;;;5074800;28;20480;-68
2020/12/09 10:54:38;;;;;;;13.97;10.20;;;20.00;48.50;;;;;;5071089;28;20477;-66
2020/12/09 10:57:05;;;;;;;13.20;9.60;;;20.00;48.50;;;;;;5069397;28;21019;-67
2020/12/09 10:59:31;;;;;;;14.07;9.93;;;20.00;48.40;;;;;;5073744;28;20488;-67
2020/12/09 11:01:57;;;;;;;12.40;9.77;;;20.00;48.40;;;;;;5072947;28;20488;-66
2020/12/09 11:04:24;;;;;;;18.93;10.03;;;20.10;48.40;;;;;;5073486;28;21444;-68
2020/12/09 11:06:50;;;;;;;13.17;9.33;;;20.10;48.30;;;;;;5071039;28;21054;-68
2020/12/09 11:09:16;;;;;;;17.10;10.20;;;20.10;48.20;;;;;;5074479;28;21035;-68
2020/12/09 11:11:45;;;;;;;13.23;8.80;;;20.10;48.20;;;;;;5076301;28;20484;-67
2020/12/09 11:14:13;;;;;;;14.57;10.33;;;20.10;48.10;;;;;;5075459;28;20507;-69
2020/12/09 11:16:39;;;;;;;19.00;9.53;;;20.20;48.10;;;;;;5091867;27;20738;-65
2020/12/09 11:19:05;;;;;;;19.03;9.90;;;20.20;49.80;;;;;;5074222;28;20497;-67
2020/12/09 11:21:31;;;;;;;14.50;9.80;;;20.20;49.10;;;;;;5062340;28;20485;-66
2020/12/09 11:23:58;;;;;;;14.17;10.30;;;20.20;48.80;;;;;;5070583;28;20856;-67
2020/12/09 11:26:27;;;;;;;14.90;9.00;;;20.10;48.80;;;;;;5071020;28;20513;-67
2020/12/09 11:28:53;;;;;;;11.60;8.80;;;20.10;48.90;;;;;;5073453;28;20480;-70
2020/12/09 11:31:23;;;;;;;15.60;9.90;;;20.10;48.80;;;;;;5071536;28;20493;-70
2020/12/09 11:33:50;;;;;;;19.20;9.47;;;20.10;48.70;;;;;;5075732;28;20865;-68
2020/12/09 11:36:16;;;;;;;12.70;9.43;;;20.10;49.30;;;;;;5071973;28;20490;-67
2020/12/09 11:38:42;;;;;;;24.93;10.20;;;20.20;48.40;;;;;;5073266;28;20480;-68
2020/12/09 11:41:08;;;;;;;13.70;9.70;;;20.20;48.30;;;;;;5069798;28;20493;-68
2020/12/09 11:43:34;;;;;;;19.43;10.27;;;20.20;48.20;;;;;;5074317;28;20481;-68
2020/12/09 11:46:01;;;;;;;14.03;9.70;;;20.20;48.10;;;;;;5072260;28;20478;-67
2020/12/09 11:48:28;;;;;;;16.77;10.63;;;20.20;48.20;;;;;;5069743;28;20577;-69
2020/12/09 11:50:54;;;;;;;15.67;10.07;;;20.20;48.30;;;;;;5068944;28;20485;-67
2020/12/09 11:53:20;;;;;;;13.57;9.97;;;20.10;48.30;;;;;;5070602;28;20502;-70
2020/12/09 11:55:46;;;;;;;17.60;10.23;;;20.10;48.40;;;;;;5070684;28;20497;-67
2020/12/09 11:58:13;;;;;;;18.17;10.60;;;20.00;48.40;;;;;;5060185;28;21049;-69
2020/12/09 12:00:39;;;;;;;12.23;9.37;;;20.00;48.60;;;;;;5063558;28;20847;-66
2020/12/09 12:03:05;;;;;;;20.00;11.77;;;20.00;48.80;;;;;;5068779;28;20511;-67
2020/12/09 12:05:34;;;;;;;16.80;10.27;;;19.90;48.70;;;;;;5073262;28;20493;-67
2020/12/09 12:08:04;;;;;;;17.13;10.80;;;19.90;48.90;;;;;;5057646;28;20484;-67
2020/12/09 12:10:30;;;;;;;18.30;10.00;;;19.80;48.90;;;;;;5062986;28;20542;-67
2020/12/09 12:12:57;;;;;;;16.37;10.13;;;19.90;49.00;;;;;;5074687;28;21642;-69
2020/12/09 12:15:23;;;;;;;12.83;9.80;;;19.90;48.90;;;;;;5073743;28;21027;-68
2020/12/09 12:17:49;;;;;;;15.30;9.63;;;19.90;49.10;;;;;;5072424;28;20849;-69
2020/12/09 12:20:15;;;;;;;12.30;9.83;;;19.80;49.00;;;;;;5069360;28;20531;-68
2020/12/09 12:22:42;;;;;;;14.67;9.37;;;19.90;49.10;;;;;;5071126;28;20489;-70
2020/12/09 12:25:08;;;;;;;18.80;10.67;;;19.90;49.10;;;;;;5059842;27;20499;-67
2020/12/09 12:27:34;;;;;;;15.17;10.33;;;19.90;49.00;;;;;;5075753;28;20477;-68
2020/12/09 12:30:00;;;;;;;14.60;9.83;;;20.00;48.90;;;;;;5048403;28;20470;-68